sensor_id;sensor_type;location;lat;lon;timestamp;pressure;altitude;pressure_sealevel;temperature;humidity
78890;BME280;68279;48.964;14.502;2023-07-20T00:01:43;96603.81;;;15.55;87.35
78890;BME280;68279;48.964;14.502;2023-07-20T00:04:10;96595.88;;;15.50;87.56
78890;BME280;68279;48.964;14.502;2023-07-20T00:06:36;96595.91;;;15.41;86.76
78890;BME280;68279;48.964;14.502;2023-07-20T00:09:07;96599.38;;;15.42;85.32
78890;BME280;68279;48.964;14.502;2023-07-20T00:11:36;96600.97;;;15.43;85.45
78890;BME280;68279;48.964;14.502;2023-07-20T00:14:06;96609.19;;;15.55;85.07
78890;BME280;68279;48.964;14.502;2023-07-20T00:16:32;96609.31;;;15.67;83.29
78890;BME280;68279;48.964;14.502;2023-07-20T00:18:57;96605.81;;;15.75;82.42
78890;BME280;68279;48.964;14.502;2023-07-20T00:21:25;96601.75;;;15.90;80.96
78890;BME280;68279;48.964;14.502;2023-07-20T00:23:50;96595.38;;;16.03;81.12
78890;BME280;68279;48.964;14.502;2023-07-20T00:26:16;96585.41;;;15.95;84.55
78890;BME280;68279;48.964;14.502;2023-07-20T00:28:42;96597.81;;;15.88;87.09
78890;BME280;68279;48.964;14.502;2023-07-20T00:31:09;96589.50;;;15.63;84.48
78890;BME280;68279;48.964;14.502;2023-07-20T00:33:34;96595.97;;;15.71;82.22
78890;BME280;68279;48.964;14.502;2023-07-20T00:36:06;96594.84;;;16.10;77.65
78890;BME280;68279;48.964;14.502;2023-07-20T00:38:31;96594.69;;;16.06;81.28
78890;BME280;68279;48.964;14.502;2023-07-20T00:40:57;96601.25;;;15.97;83.78
78890;BME280;68279;48.964;14.502;2023-07-20T00:43:22;96603.81;;;16.23;80.37
78890;BME280;68279;48.964;14.502;2023-07-20T00:45:48;96609.03;;;16.28;80.79
78890;BME280;68279;48.964;14.502;2023-07-20T00:48:14;96608.34;;;16.10;82.19
78890;BME280;68279;48.964;14.502;2023-07-20T00:50:40;96602.09;;;15.89;85.05
78890;BME280;68279;48.964;14.502;2023-07-20T00:53:06;96613.16;;;15.66;85.99
78890;BME280;68279;48.964;14.502;2023-07-20T00:55:32;96602.75;;;15.39;85.96
78890;BME280;68279;48.964;14.502;2023-07-20T00:57:59;96606.59;;;15.20;86.78
78890;BME280;68279;48.964;14.502;2023-07-20T01:00:25;96608.94;;;15.22;87.72
78890;BME280;68279;48.964;14.502;2023-07-20T01:02:51;96613.56;;;15.21;87.49
78890;BME280;68279;48.964;14.502;2023-07-20T01:05:17;96616.38;;;15.34;88.03
78890;BME280;68279;48.964;14.502;2023-07-20T01:07:52;96617.03;;;15.13;90.52
78890;BME280;68279;48.964;14.502;2023-07-20T01:10:25;96616.59;;;15.11;88.89
78890;BME280;68279;48.964;14.502;2023-07-20T01:12:55;96614.81;;;15.24;89.69
78890;BME280;68279;48.964;14.502;2023-07-20T01:15:23;96613.25;;;15.06;90.79
78890;BME280;68279;48.964;14.502;2023-07-20T01:17:48;96609.59;;;15.01;92.44
78890;BME280;68279;48.964;14.502;2023-07-20T01:20:15;96610.72;;;14.83;93.35
78890;BME280;68279;48.964;14.502;2023-07-20T01:31:27;96606.63;;;14.86;91.72
78890;BME280;68279;48.964;14.502;2023-07-20T01:34:00;96602.34;;;14.76;90.89
78890;BME280;68279;48.964;14.502;2023-07-20T01:36:30;96597.44;;;14.69;92.36
78890;BME280;68279;48.964;14.502;2023-07-20T01:38:58;96598.88;;;14.58;92.02
78890;BME280;68279;48.964;14.502;2023-07-20T01:41:24;96597.44;;;14.52;91.75
78890;BME280;68279;48.964;14.502;2023-07-20T01:43:50;96605.63;;;14.47;91.35
78890;BME280;68279;48.964;14.502;2023-07-20T01:46:16;96602.91;;;14.30;93.41
78890;BME280;68279;48.964;14.502;2023-07-20T01:48:42;96609.06;;;14.30;93.91
78890;BME280;68279;48.964;14.502;2023-07-20T01:51:08;96611.75;;;14.22;93.41
78890;BME280;68279;48.964;14.502;2023-07-20T01:53:34;96606.66;;;14.11;93.26
78890;BME280;68279;48.964;14.502;2023-07-20T01:55:59;96617.25;;;14.08;92.88
78890;BME280;68279;48.964;14.502;2023-07-20T01:58:25;96618.81;;;14.00;93.54
78890;BME280;68279;48.964;14.502;2023-07-20T02:00:51;96618.66;;;13.97;94.41
78890;BME280;68279;48.964;14.502;2023-07-20T02:03:16;96612.78;;;13.95;94.88
78890;BME280;68279;48.964;14.502;2023-07-20T02:05:45;96611.97;;;13.94;93.96
78890;BME280;68279;48.964;14.502;2023-07-20T02:08:10;96617.81;;;13.79;93.82
78890;BME280;68279;48.964;14.502;2023-07-20T02:10:36;96626.66;;;13.79;93.96
78890;BME280;68279;48.964;14.502;2023-07-20T02:13:02;96631.91;;;13.93;93.16
78890;BME280;68279;48.964;14.502;2023-07-20T02:15:27;96633.19;;;13.87;92.81
78890;BME280;68279;48.964;14.502;2023-07-20T02:17:54;96635.03;;;13.86;92.54
78890;BME280;68279;48.964;14.502;2023-07-20T02:20:20;96642.47;;;13.81;92.79
78890;BME280;68279;48.964;14.502;2023-07-20T02:22:46;96644.00;;;13.73;92.45
78890;BME280;68279;48.964;14.502;2023-07-20T02:25:12;96637.97;;;13.68;92.69
78890;BME280;68279;48.964;14.502;2023-07-20T02:27:38;96637.41;;;13.48;93.39
78890;BME280;68279;48.964;14.502;2023-07-20T02:30:04;96640.66;;;13.37;93.07
78890;BME280;68279;48.964;14.502;2023-07-20T02:32:30;96649.81;;;13.36;93.28
78890;BME280;68279;48.964;14.502;2023-07-20T02:34:57;96654.41;;;13.35;94.28
78890;BME280;68279;48.964;14.502;2023-07-20T02:37:23;96655.59;;;12.84;95.23
78890;BME280;68279;48.964;14.502;2023-07-20T02:39:49;96654.25;;;12.95;95.30
78890;BME280;68279;48.964;14.502;2023-07-20T02:42:15;96663.63;;;13.07;94.21
78890;BME280;68279;48.964;14.502;2023-07-20T02:44:40;96663.22;;;13.13;93.15
78890;BME280;68279;48.964;14.502;2023-07-20T02:47:06;96662.84;;;13.20;92.62
78890;BME280;68279;48.964;14.502;2023-07-20T02:49:32;96661.31;;;13.27;93.53
78890;BME280;68279;48.964;14.502;2023-07-20T02:51:57;96667.00;;;13.12;94.22
78890;BME280;68279;48.964;14.502;2023-07-20T02:54:23;96662.19;;;13.00;96.28
78890;BME280;68279;48.964;14.502;2023-07-20T02:56:49;96667.28;;;13.24;95.83
78890;BME280;68279;48.964;14.502;2023-07-20T02:59:14;96669.97;;;13.47;94.75
78890;BME280;68279;48.964;14.502;2023-07-20T03:01:40;96657.72;;;13.63;94.26
78890;BME280;68279;48.964;14.502;2023-07-20T03:04:08;96658.00;;;13.53;95.94
78890;BME280;68279;48.964;14.502;2023-07-20T03:06:36;96671.22;;;13.49;96.80
78890;BME280;68279;48.964;14.502;2023-07-20T03:09:09;96670.59;;;13.44;97.20
78890;BME280;68279;48.964;14.502;2023-07-20T03:11:35;96671.56;;;13.25;97.58
78890;BME280;68279;48.964;14.502;2023-07-20T03:14:01;96667.78;;;13.26;96.13
78890;BME280;68279;48.964;14.502;2023-07-20T03:16:26;96679.53;;;13.39;95.25
78890;BME280;68279;48.964;14.502;2023-07-20T03:18:52;96673.47;;;13.56;95.44
78890;BME280;68279;48.964;14.502;2023-07-20T03:21:19;96678.78;;;13.70;95.07
78890;BME280;68279;48.964;14.502;2023-07-20T03:23:45;96686.13;;;13.55;94.57
78890;BME280;68279;48.964;14.502;2023-07-20T03:26:10;96689.28;;;13.57;95.21
78890;BME280;68279;48.964;14.502;2023-07-20T03:28:37;96688.06;;;13.64;94.45
78890;BME280;68279;48.964;14.502;2023-07-20T03:31:03;96680.91;;;13.59;93.38
78890;BME280;68279;48.964;14.502;2023-07-20T03:33:29;96676.84;;;13.62;94.50
78890;BME280;68279;48.964;14.502;2023-07-20T03:35:56;96685.25;;;13.69;94.58
78890;BME280;68279;48.964;14.502;2023-07-20T03:38:22;96675.84;;;13.57;94.53
78890;BME280;68279;48.964;14.502;2023-07-20T03:40:55;96674.94;;;13.62;95.32
78890;BME280;68279;48.964;14.502;2023-07-20T03:43:24;96679.59;;;13.70;95.31
78890;BME280;68279;48.964;14.502;2023-07-20T03:45:50;96667.81;;;13.57;95.60
78890;BME280;68279;48.964;14.502;2023-07-20T03:48:18;96681.06;;;13.54;94.60
78890;BME280;68279;48.964;14.502;2023-07-20T03:50:47;96678.09;;;12.97;95.64
78890;BME280;68279;48.964;14.502;2023-07-20T03:53:13;96678.84;;;13.11;95.78
78890;BME280;68279;48.964;14.502;2023-07-20T03:55:41;96684.94;;;13.03;97.09
78890;BME280;68279;48.964;14.502;2023-07-20T03:58:07;96681.31;;;13.21;97.17
78890;BME280;68279;48.964;14.502;2023-07-20T04:00:34;96683.22;;;13.43;94.77
78890;BME280;68279;48.964;14.502;2023-07-20T04:03:00;96675.94;;;13.44;94.33
78890;BME280;68279;48.964;14.502;2023-07-20T04:05:37;96673.91;;;13.49;94.03
78890;BME280;68279;48.964;14.502;2023-07-20T04:08:03;96675.44;;;13.64;95.20
78890;BME280;68279;48.964;14.502;2023-07-20T04:10:33;96688.66;;;13.52;96.52
78890;BME280;68279;48.964;14.502;2023-07-20T04:13:03;96690.38;;;13.25;97.99
78890;BME280;68279;48.964;14.502;2023-07-20T04:15:34;96688.75;;;13.47;96.14
78890;BME280;68279;48.964;14.502;2023-07-20T04:18:12;96687.97;;;13.77;94.64
78890;BME280;68279;48.964;14.502;2023-07-20T04:20:37;96692.78;;;13.89;94.59
78890;BME280;68279;48.964;14.502;2023-07-20T04:23:03;96691.28;;;14.05;92.60
78890;BME280;68279;48.964;14.502;2023-07-20T04:25:29;96690.84;;;14.21;93.96
78890;BME280;68279;48.964;14.502;2023-07-20T04:27:55;96704.19;;;14.34;93.36
78890;BME280;68279;48.964;14.502;2023-07-20T04:30:21;96697.56;;;14.40;92.73
78890;BME280;68279;48.964;14.502;2023-07-20T04:32:48;96705.13;;;14.30;96.17
78890;BME280;68279;48.964;14.502;2023-07-20T04:38:12;96703.34;;;14.65;93.85
78890;BME280;68279;48.964;14.502;2023-07-20T04:40:37;96709.72;;;14.78;91.93
78890;BME280;68279;48.964;14.502;2023-07-20T04:43:02;96707.03;;;14.95;90.99
78890;BME280;68279;48.964;14.502;2023-07-20T04:45:28;96723.69;;;15.06;89.86
78890;BME280;68279;48.964;14.502;2023-07-20T04:47:54;96722.72;;;15.10;91.40
78890;BME280;68279;48.964;14.502;2023-07-20T04:50:20;96721.13;;;15.26;90.97
78890;BME280;68279;48.964;14.502;2023-07-20T04:52:45;96717.16;;;15.41;92.29
78890;BME280;68279;48.964;14.502;2023-07-20T04:55:13;96727.47;;;15.65;91.00
78890;BME280;68279;48.964;14.502;2023-07-20T04:57:39;96728.84;;;15.89;88.65
78890;BME280;68279;48.964;14.502;2023-07-20T05:00:05;96729.59;;;16.06;88.94
78890;BME280;68279;48.964;14.502;2023-07-20T05:02:32;96727.78;;;16.28;89.12
78890;BME280;68279;48.964;14.502;2023-07-20T05:04:58;96733.78;;;16.33;87.56
78890;BME280;68279;48.964;14.502;2023-07-20T05:07:23;96735.88;;;16.28;87.78
78890;BME280;68279;48.964;14.502;2023-07-20T05:09:49;96739.38;;;16.28;85.32
78890;BME280;68279;48.964;14.502;2023-07-20T05:12:15;96736.44;;;16.42;85.79
78890;BME280;68279;48.964;14.502;2023-07-20T05:14:40;96736.88;;;16.53;88.86
78890;BME280;68279;48.964;14.502;2023-07-20T05:17:08;96724.91;;;16.71;87.53
78890;BME280;68279;48.964;14.502;2023-07-20T05:19:34;96722.88;;;16.89;83.59
78890;BME280;68279;48.964;14.502;2023-07-20T05:21:59;96724.84;;;17.42;82.51
78890;BME280;68279;48.964;14.502;2023-07-20T05:24:25;96728.59;;;17.71;80.26
78890;BME280;68279;48.964;14.502;2023-07-20T05:26:50;96730.69;;;17.98;80.40
78890;BME280;68279;48.964;14.502;2023-07-20T05:29:16;96726.41;;;18.09;78.55
78890;BME280;68279;48.964;14.502;2023-07-20T05:31:43;96727.97;;;17.98;81.78
78890;BME280;68279;48.964;14.502;2023-07-20T05:34:08;96728.56;;;18.04;87.18
78890;BME280;68279;48.964;14.502;2023-07-20T05:36:34;96729.34;;;18.04;82.07
78890;BME280;68279;48.964;14.502;2023-07-20T05:38:59;96734.09;;;18.20;82.38
78890;BME280;68279;48.964;14.502;2023-07-20T05:41:25;96737.50;;;18.53;80.23
78890;BME280;68279;48.964;14.502;2023-07-20T05:43:51;96732.44;;;18.64;77.03
78890;BME280;68279;48.964;14.502;2023-07-20T05:46:29;96737.84;;;18.52;79.69
78890;BME280;68279;48.964;14.502;2023-07-20T05:48:55;96733.94;;;18.74;72.37
78890;BME280;68279;48.964;14.502;2023-07-20T05:51:21;96739.25;;;18.70;79.23
78890;BME280;68279;48.964;14.502;2023-07-20T05:53:53;96736.78;;;18.65;74.82
78890;BME280;68279;48.964;14.502;2023-07-20T05:56:21;96733.47;;;18.47;77.83
78890;BME280;68279;48.964;14.502;2023-07-20T05:58:46;96737.38;;;18.37;77.30
78890;BME280;68279;48.964;14.502;2023-07-20T06:01:12;96742.06;;;18.74;77.09
78890;BME280;68279;48.964;14.502;2023-07-20T06:03:44;96747.00;;;18.96;77.48
78890;BME280;68279;48.964;14.502;2023-07-20T06:06:10;96758.09;;;18.79;71.72
78890;BME280;68279;48.964;14.502;2023-07-20T06:08:37;96758.53;;;18.68;77.94
78890;BME280;68279;48.964;14.502;2023-07-20T06:11:03;96759.31;;;18.81;75.47
78890;BME280;68279;48.964;14.502;2023-07-20T06:13:29;96752.84;;;19.22;74.98
78890;BME280;68279;48.964;14.502;2023-07-20T06:15:55;96753.34;;;19.80;68.56
78890;BME280;68279;48.964;14.502;2023-07-20T06:18:22;96750.38;;;19.86;73.69
78890;BME280;68279;48.964;14.502;2023-07-20T06:20:51;96749.91;;;19.28;69.22
78890;BME280;68279;48.964;14.502;2023-07-20T06:23:19;96748.56;;;19.62;69.43
78890;BME280;68279;48.964;14.502;2023-07-20T06:25:44;96756.78;;;19.93;70.39
78890;BME280;68279;48.964;14.502;2023-07-20T06:28:11;96758.03;;;19.68;71.33
78890;BME280;68279;48.964;14.502;2023-07-20T06:30:37;96755.13;;;19.89;65.98
78890;BME280;68279;48.964;14.502;2023-07-20T06:33:03;96757.41;;;20.02;63.52
78890;BME280;68279;48.964;14.502;2023-07-20T06:35:28;96754.22;;;19.85;62.46
78890;BME280;68279;48.964;14.502;2023-07-20T06:37:55;96757.88;;;19.76;62.95
78890;BME280;68279;48.964;14.502;2023-07-20T06:40:21;96758.88;;;19.56;62.84
78890;BME280;68279;48.964;14.502;2023-07-20T06:42:46;96750.72;;;19.84;62.15
78890;BME280;68279;48.964;14.502;2023-07-20T06:45:16;96751.56;;;20.16;61.87
78890;BME280;68279;48.964;14.502;2023-07-20T06:47:43;96762.09;;;20.33;63.75
78890;BME280;68279;48.964;14.502;2023-07-20T06:50:09;96759.09;;;20.38;60.70
78890;BME280;68279;48.964;14.502;2023-07-20T06:52:35;96753.00;;;20.42;62.35
78890;BME280;68279;48.964;14.502;2023-07-20T06:55:01;96756.25;;;20.63;58.86
78890;BME280;68279;48.964;14.502;2023-07-20T06:57:26;96749.66;;;20.64;62.14
78890;BME280;68279;48.964;14.502;2023-07-20T06:59:52;96747.50;;;20.54;62.69
78890;BME280;68279;48.964;14.502;2023-07-20T07:02:18;96743.25;;;20.72;60.62
78890;BME280;68279;48.964;14.502;2023-07-20T07:04:44;96745.56;;;20.70;59.91
78890;BME280;68279;48.964;14.502;2023-07-20T07:07:10;96747.06;;;20.68;58.54
78890;BME280;68279;48.964;14.502;2023-07-20T07:09:36;96757.63;;;20.73;59.81
78890;BME280;68279;48.964;14.502;2023-07-20T07:12:02;96756.06;;;20.87;59.89
78890;BME280;68279;48.964;14.502;2023-07-20T07:14:28;96753.00;;;21.08;61.77
78890;BME280;68279;48.964;14.502;2023-07-20T07:16:54;96757.50;;;21.01;58.29
78890;BME280;68279;48.964;14.502;2023-07-20T07:19:19;96758.81;;;21.07;59.89
78890;BME280;68279;48.964;14.502;2023-07-20T07:21:45;96763.06;;;21.24;57.81
78890;BME280;68279;48.964;14.502;2023-07-20T07:24:11;96761.25;;;20.77;58.38
78890;BME280;68279;48.964;14.502;2023-07-20T07:26:37;96758.97;;;21.30;57.10
78890;BME280;68279;48.964;14.502;2023-07-20T07:29:06;96761.22;;;21.28;57.13
78890;BME280;68279;48.964;14.502;2023-07-20T07:31:36;96761.13;;;21.24;56.82
78890;BME280;68279;48.964;14.502;2023-07-20T07:34:02;96761.19;;;21.43;58.14
78890;BME280;68279;48.964;14.502;2023-07-20T07:36:28;96762.66;;;21.21;57.13
78890;BME280;68279;48.964;14.502;2023-07-20T07:38:54;96761.13;;;21.24;57.87
78890;BME280;68279;48.964;14.502;2023-07-20T07:41:19;96755.03;;;21.46;55.55
78890;BME280;68279;48.964;14.502;2023-07-20T07:43:45;96755.75;;;21.43;56.31
78890;BME280;68279;48.964;14.502;2023-07-20T07:46:11;96750.50;;;21.54;55.30
78890;BME280;68279;48.964;14.502;2023-07-20T07:48:37;96751.94;;;21.29;57.12
78890;BME280;68279;48.964;14.502;2023-07-20T07:51:02;96740.13;;;21.79;55.88
78890;BME280;68279;48.964;14.502;2023-07-20T07:53:28;96737.84;;;22.23;54.72
78890;BME280;68279;48.964;14.502;2023-07-20T07:55:53;96738.81;;;22.57;56.79
78890;BME280;68279;48.964;14.502;2023-07-20T07:58:20;96734.66;;;23.16;54.40
78890;BME280;68279;48.964;14.502;2023-07-20T08:00:46;96729.72;;;22.73;52.36
78890;BME280;68279;48.964;14.502;2023-07-20T08:03:13;96736.69;;;22.97;55.05
78890;BME280;68279;48.964;14.502;2023-07-20T08:05:40;96736.75;;;22.51;52.98
78890;BME280;68279;48.964;14.502;2023-07-20T08:08:06;96732.47;;;22.99;55.79
78890;BME280;68279;48.964;14.502;2023-07-20T08:10:33;96738.63;;;23.53;52.93
78890;BME280;68279;48.964;14.502;2023-07-20T08:12:58;96729.41;;;23.61;54.02
78890;BME280;68279;48.964;14.502;2023-07-20T08:15:24;96727.69;;;23.23;53.74
78890;BME280;68279;48.964;14.502;2023-07-20T08:17:50;96722.75;;;23.32;53.12
78890;BME280;68279;48.964;14.502;2023-07-20T08:20:18;96729.91;;;23.13;54.24
78890;BME280;68279;48.964;14.502;2023-07-20T08:22:44;96730.59;;;22.31;55.17
78890;BME280;68279;48.964;14.502;2023-07-20T08:25:35;96729.31;;;22.48;54.47
78890;BME280;68279;48.964;14.502;2023-07-20T08:28:07;96719.72;;;22.57;55.58
78890;BME280;68279;48.964;14.502;2023-07-20T08:30:46;96717.28;;;22.75;56.60
78890;BME280;68279;48.964;14.502;2023-07-20T08:33:17;96716.41;;;22.94;54.90
78890;BME280;68279;48.964;14.502;2023-07-20T08:35:47;96722.75;;;23.02;55.30
78890;BME280;68279;48.964;14.502;2023-07-20T08:38:14;96709.69;;;22.39;55.07
78890;BME280;68279;48.964;14.502;2023-07-20T08:40:42;96711.50;;;22.08;56.31
78890;BME280;68279;48.964;14.502;2023-07-20T08:43:10;96714.78;;;21.75;56.96
78890;BME280;68279;48.964;14.502;2023-07-20T08:45:36;96716.78;;;21.78;55.15
78890;BME280;68279;48.964;14.502;2023-07-20T08:48:05;96712.31;;;22.09;55.66
78890;BME280;68279;48.964;14.502;2023-07-20T08:50:31;96717.09;;;21.96;56.36
78890;BME280;68279;48.964;14.502;2023-07-20T08:52:58;96709.81;;;22.23;53.25
78890;BME280;68279;48.964;14.502;2023-07-20T08:55:26;96716.06;;;22.23;51.61
78890;BME280;68279;48.964;14.502;2023-07-20T08:57:57;96716.13;;;22.76;51.44
78890;BME280;68279;48.964;14.502;2023-07-20T09:00:24;96723.25;;;22.58;50.47
78890;BME280;68279;48.964;14.502;2023-07-20T09:02:55;96719.47;;;21.97;54.54
78890;BME280;68279;48.964;14.502;2023-07-20T09:05:23;96727.56;;;22.13;54.73
78890;BME280;68279;48.964;14.502;2023-07-20T09:07:51;96728.34;;;22.37;56.66
78890;BME280;68279;48.964;14.502;2023-07-20T09:10:20;96728.53;;;22.05;57.60
78890;BME280;68279;48.964;14.502;2023-07-20T09:12:46;96716.09;;;22.04;57.41
78890;BME280;68279;48.964;14.502;2023-07-20T09:15:13;96720.84;;;21.88;54.22
78890;BME280;68279;48.964;14.502;2023-07-20T09:17:45;96724.06;;;22.36;53.59
78890;BME280;68279;48.964;14.502;2023-07-20T09:20:11;96716.53;;;22.29;53.28
78890;BME280;68279;48.964;14.502;2023-07-20T09:22:38;96720.91;;;23.09;52.27
78890;BME280;68279;48.964;14.502;2023-07-20T09:25:13;96719.19;;;23.28;50.18
78890;BME280;68279;48.964;14.502;2023-07-20T09:27:47;96731.25;;;22.97;52.27
78890;BME280;68279;48.964;14.502;2023-07-20T09:30:14;96724.09;;;23.45;50.32
78890;BME280;68279;48.964;14.502;2023-07-20T09:32:48;96729.53;;;22.85;52.72
78890;BME280;68279;48.964;14.502;2023-07-20T09:35:15;96749.78;;;21.38;59.72
78890;BME280;68279;48.964;14.502;2023-07-20T09:37:46;96747.13;;;20.71;61.57
78890;BME280;68279;48.964;14.502;2023-07-20T09:40:14;96746.94;;;20.32;62.25
78890;BME280;68279;48.964;14.502;2023-07-20T09:42:40;96754.56;;;20.74;62.27
78890;BME280;68279;48.964;14.502;2023-07-20T09:45:09;96748.16;;;21.53;62.21
78890;BME280;68279;48.964;14.502;2023-07-20T09:47:39;96748.31;;;22.21;59.66
78890;BME280;68279;48.964;14.502;2023-07-20T09:50:08;96746.94;;;22.31;60.43
78890;BME280;68279;48.964;14.502;2023-07-20T09:52:41;96743.47;;;23.06;55.21
78890;BME280;68279;48.964;14.502;2023-07-20T09:55:10;96753.94;;;23.31;55.10
78890;BME280;68279;48.964;14.502;2023-07-20T09:57:39;96750.66;;;22.92;58.77
78890;BME280;68279;48.964;14.502;2023-07-20T10:00:07;96741.06;;;22.29;57.66
78890;BME280;68279;48.964;14.502;2023-07-20T10:02:41;96743.94;;;23.12;55.75
78890;BME280;68279;48.964;14.502;2023-07-20T10:05:08;96745.59;;;23.77;53.71
78890;BME280;68279;48.964;14.502;2023-07-20T10:07:43;96751.13;;;23.54;54.99
78890;BME280;68279;48.964;14.502;2023-07-20T10:10:10;96754.38;;;22.80;57.10
78890;BME280;68279;48.964;14.502;2023-07-20T10:12:37;96758.44;;;22.44;57.32
78890;BME280;68279;48.964;14.502;2023-07-20T10:15:18;96758.25;;;22.33;57.88
78890;BME280;68279;48.964;14.502;2023-07-20T10:18:06;96754.28;;;22.27;55.47
78890;BME280;68279;48.964;14.502;2023-07-20T10:20:35;96756.59;;;21.86;57.81
78890;BME280;68279;48.964;14.502;2023-07-20T10:23:02;96751.22;;;21.90;58.00
78890;BME280;68279;48.964;14.502;2023-07-20T10:25:28;96747.97;;;22.03;56.78
78890;BME280;68279;48.964;14.502;2023-07-20T10:27:56;96749.06;;;22.41;56.25
78890;BME280;68279;48.964;14.502;2023-07-20T10:30:22;96753.09;;;22.51;54.64
78890;BME280;68279;48.964;14.502;2023-07-20T10:32:49;96737.84;;;22.96;53.88
78890;BME280;68279;48.964;14.502;2023-07-20T10:35:16;96746.56;;;22.55;54.01
78890;BME280;68279;48.964;14.502;2023-07-20T10:37:49;96744.78;;;22.67;55.08
78890;BME280;68279;48.964;14.502;2023-07-20T10:43:08;96745.03;;;22.35;57.23
78890;BME280;68279;48.964;14.502;2023-07-20T10:48:05;96753.50;;;21.88;57.86
78890;BME280;68279;48.964;14.502;2023-07-20T10:50:32;96758.88;;;22.03;58.83
78890;BME280;68279;48.964;14.502;2023-07-20T10:53:25;96754.84;;;22.17;57.88
78890;BME280;68279;48.964;14.502;2023-07-20T10:56:05;96752.84;;;22.59;57.03
78890;BME280;68279;48.964;14.502;2023-07-20T10:58:33;96748.75;;;23.22;51.73
78890;BME280;68279;48.964;14.502;2023-07-20T11:01:04;96753.03;;;24.20;51.54
78890;BME280;68279;48.964;14.502;2023-07-20T11:03:32;96750.19;;;24.98;46.06
78890;BME280;68279;48.964;14.502;2023-07-20T11:05:59;96731.53;;;24.15;47.71
78890;BME280;68279;48.964;14.502;2023-07-20T11:08:42;96734.50;;;23.36;50.97
78890;BME280;68279;48.964;14.502;2023-07-20T11:16:43;96722.31;;;23.90;47.89
78890;BME280;68279;48.964;14.502;2023-07-20T11:19:30;96718.50;;;23.98;47.89
78890;BME280;68279;48.964;14.502;2023-07-20T11:22:04;96711.91;;;24.47;47.85
78890;BME280;68279;48.964;14.502;2023-07-20T11:24:34;96722.81;;;25.67;45.37
78890;BME280;68279;48.964;14.502;2023-07-20T11:27:00;96718.06;;;25.47;43.16
78890;BME280;68279;48.964;14.502;2023-07-20T11:29:26;96712.25;;;23.97;44.88
78890;BME280;68279;48.964;14.502;2023-07-20T11:31:52;96713.41;;;23.59;46.76
78890;BME280;68279;48.964;14.502;2023-07-20T11:34:24;96714.00;;;23.49;46.75
78890;BME280;68279;48.964;14.502;2023-07-20T11:36:51;96710.91;;;23.51;45.96
78890;BME280;68279;48.964;14.502;2023-07-20T11:39:17;96703.31;;;23.67;45.60
78890;BME280;68279;48.964;14.502;2023-07-20T11:41:47;96700.97;;;23.65;47.00
78890;BME280;68279;48.964;14.502;2023-07-20T11:44:13;96705.41;;;23.77;45.69
78890;BME280;68279;48.964;14.502;2023-07-20T11:46:41;96707.34;;;22.86;46.00
78890;BME280;68279;48.964;14.502;2023-07-20T11:49:08;96711.38;;;22.96;48.43
78890;BME280;68279;48.964;14.502;2023-07-20T11:51:35;96706.41;;;23.62;47.42
78890;BME280;68279;48.964;14.502;2023-07-20T11:54:02;96709.31;;;25.20;42.74
78890;BME280;68279;48.964;14.502;2023-07-20T11:56:30;96699.09;;;26.36;39.78
78890;BME280;68279;48.964;14.502;2023-07-20T11:58:58;96697.16;;;26.61;38.42
78890;BME280;68279;48.964;14.502;2023-07-20T12:01:29;96693.13;;;24.97;40.77
78890;BME280;68279;48.964;14.502;2023-07-20T12:04:03;96697.50;;;25.05;42.40
78890;BME280;68279;48.964;14.502;2023-07-20T12:06:29;96682.25;;;26.87;39.71
78890;BME280;68279;48.964;14.502;2023-07-20T12:08:56;96683.94;;;27.65;37.75
78890;BME280;68279;48.964;14.502;2023-07-20T12:13:58;96686.78;;;24.82;35.74
78890;BME280;68279;48.964;14.502;2023-07-20T12:16:26;96683.88;;;25.16;35.28
78890;BME280;68279;48.964;14.502;2023-07-20T12:19:02;96688.78;;;24.89;35.57
78890;BME280;68279;48.964;14.502;2023-07-20T12:21:29;96682.72;;;24.58;36.57
78890;BME280;68279;48.964;14.502;2023-07-20T12:24:02;96682.44;;;24.74;35.91
78890;BME280;68279;48.964;14.502;2023-07-20T12:26:29;96677.47;;;24.35;36.89
78890;BME280;68279;48.964;14.502;2023-07-20T12:29:00;96681.16;;;24.13;36.57
78890;BME280;68279;48.964;14.502;2023-07-20T12:31:27;96669.66;;;24.37;35.71
78890;BME280;68279;48.964;14.502;2023-07-20T12:33:53;96673.47;;;24.25;35.53
78890;BME280;68279;48.964;14.502;2023-07-20T12:36:22;96679.28;;;25.37;36.21
78890;BME280;68279;48.964;14.502;2023-07-20T12:38:48;96673.25;;;26.54;32.96
78890;BME280;68279;48.964;14.502;2023-07-20T12:41:14;96665.75;;;27.05;30.57
78890;BME280;68279;48.964;14.502;2023-07-20T12:43:42;96676.75;;;26.83;30.96
78890;BME280;68279;48.964;14.502;2023-07-20T12:46:08;96666.41;;;25.45;34.27
78890;BME280;68279;48.964;14.502;2023-07-20T12:48:43;96665.75;;;25.87;34.68
78890;BME280;68279;48.964;14.502;2023-07-20T12:51:15;96659.91;;;26.81;31.10
78890;BME280;68279;48.964;14.502;2023-07-20T12:53:48;96662.97;;;27.01;31.90
78890;BME280;68279;48.964;14.502;2023-07-20T12:56:19;96655.63;;;26.38;33.10
78890;BME280;68279;48.964;14.502;2023-07-20T12:58:45;96652.44;;;25.82;33.85
78890;BME280;68279;48.964;14.502;2023-07-20T13:01:11;96655.22;;;26.68;33.26
78890;BME280;68279;48.964;14.502;2023-07-20T13:03:37;96655.22;;;26.36;31.13
78890;BME280;68279;48.964;14.502;2023-07-20T13:06:08;96647.28;;;25.70;31.65
78890;BME280;68279;48.964;14.502;2023-07-20T13:08:37;96656.91;;;25.14;33.97
78890;BME280;68279;48.964;14.502;2023-07-20T13:11:04;96654.19;;;25.21;33.12
78890;BME280;68279;48.964;14.502;2023-07-20T13:13:30;96663.41;;;24.95;34.10
78890;BME280;68279;48.964;14.502;2023-07-20T13:15:56;96656.53;;;25.23;33.27
78890;BME280;68279;48.964;14.502;2023-07-20T13:18:21;96658.28;;;24.90;32.99